createdAt,value
2023-01-28T06:33:35.861Z,78.90
2023-01-28T06:36:08.188Z,83.63
2023-01-28T06:38:40.168Z,76.05
2023-01-28T06:41:12.360Z,77.35
2023-01-28T06:43:44.327Z,80.78
2023-01-28T06:46:16.744Z,74.18
2023-01-28T06:48:49.067Z,71.55
2023-01-28T06:51:21.269Z,83.63
2023-01-28T06:53:53.198Z,71.35
2023-01-28T06:56:25.532Z,73.70
2023-01-28T06:58:58.417Z,66.60
2023-01-28T07:01:30.892Z,64.18
2023-01-28T07:04:03.531Z,68.05
2023-01-28T07:06:35.468Z,76.70
2023-01-28T07:09:07.365Z,72.68
2023-01-28T07:11:39.528Z,69.47
2023-01-28T07:14:11.940Z,67.80
2023-01-28T07:16:43.939Z,65.88
2023-01-28T07:19:16.237Z,70.68
2023-01-28T07:21:48.343Z,73.32
2023-01-28T07:24:20.414Z,62.28
2023-01-28T07:26:52.493Z,65.85
2023-01-28T07:29:24.594Z,65.47
2023-01-28T07:31:57.027Z,70.70
2023-01-28T07:34:29.099Z,68.03
2023-01-28T07:37:01.133Z,66.32
2023-01-28T07:39:33.220Z,73.15
2023-01-28T07:42:05.332Z,67.05
2023-01-28T07:44:41.815Z,66.63
2023-01-28T07:47:14.011Z,69.03
2023-01-28T07:49:46.729Z,73.75
2023-01-28T07:52:18.736Z,78.10
2023-01-28T07:55:00.097Z,75.67
2023-01-28T07:57:35.459Z,77.43
2023-01-28T08:00:08.584Z,68.82
2023-01-28T08:02:48.186Z,72.90
2023-01-28T08:05:21.955Z,63.85
2023-01-28T08:07:54.250Z,65.03
2023-01-28T08:10:27.026Z,67.30
2023-01-28T08:12:59.506Z,66.13
2023-01-28T08:15:34.140Z,66.97
2023-01-28T08:18:08.824Z,65.10
2023-01-28T08:20:41.608Z,60.83
2023-01-28T08:23:18.936Z,62.63
2023-01-28T08:25:53.728Z,61.10
2023-01-28T08:28:25.865Z,62.88
2023-01-28T08:31:00.616Z,62.22
2023-01-28T08:33:32.840Z,68.93
2023-01-28T08:36:05.733Z,63.58
2023-01-28T08:38:40.080Z,65.47
2023-01-28T08:41:12.172Z,62.28
2023-01-28T08:43:44.143Z,67.90
2023-01-28T08:46:16.954Z,68.93
2023-01-28T08:48:50.924Z,60.00
2023-01-28T08:51:22.914Z,58.28
2023-01-28T08:53:54.835Z,66.53
2023-01-28T08:56:27.048Z,77.32
2023-01-28T08:58:59.008Z,68.85
2023-01-28T09:01:31.031Z,64.10
2023-01-28T15:54:11.127Z,45.80
2023-01-28T15:56:43.495Z,45.50
2023-01-28T15:59:22.213Z,45.22
2023-01-28T16:02:17.616Z,51.10
2023-01-28T16:04:57.571Z,46.05
2023-01-28T16:07:33.360Z,46.70
2023-01-28T16:10:05.881Z,44.65
2023-01-28T16:12:37.862Z,44.78
2023-01-28T16:15:19.601Z,42.97
2023-01-28T16:17:52.686Z,46.95
2023-01-28T16:20:27.112Z,45.17
2023-01-28T16:23:01.162Z,52.25
2023-01-28T16:25:34.672Z,47.85
2023-01-28T16:28:19.757Z,47.65
2023-01-28T16:30:51.793Z,49.50
2023-01-28T16:33:23.925Z,53.22
2023-01-28T16:36:07.664Z,49.65
2023-01-28T16:38:41.147Z,43.80
2023-01-28T16:41:17.932Z,49.03
2023-01-28T16:43:49.837Z,50.28
2023-01-28T16:46:21.828Z,51.63
2023-01-28T16:48:53.899Z,48.78
2023-01-28T16:51:26.671Z,42.33
2023-01-28T16:53:59.377Z,44.28
2023-01-28T16:56:47.316Z,49.57
2023-01-28T16:59:19.460Z,58.20
2023-01-28T17:01:51.502Z,47.88
2023-01-28T17:04:23.800Z,49.22
2023-01-28T17:06:56.547Z,55.00
2023-01-28T17:09:28.578Z,52.63
2023-01-28T17:12:02.419Z,60.30
2023-01-28T17:14:36.149Z,52.83
2023-01-28T17:17:08.316Z,65.22
2023-01-28T17:19:40.254Z,120.10
2023-01-28T17:22:12.415Z,76.82
2023-01-28T17:24:44.438Z,50.92
2023-01-28T17:27:16.624Z,48.92
2023-01-28T17:29:48.575Z,50.90
2023-01-28T17:32:21.423Z,52.65
2023-01-28T17:34:53.440Z,110.13
2023-01-28T17:37:25.541Z,82.63
2023-01-28T17:39:57.836Z,55.88
2023-01-28T17:42:29.894Z,62.75
2023-01-28T17:45:03.380Z,73.50
2023-01-28T17:47:35.734Z,52.50
2023-01-28T17:50:07.938Z,66.05
2023-01-28T17:52:41.279Z,100.63
2023-01-28T17:55:13.527Z,69.30
2023-01-28T17:57:45.833Z,55.25
2023-01-28T18:00:19.231Z,48.40
2023-01-28T18:02:53.055Z,52.30
2023-01-28T18:05:25.048Z,52.85
2023-01-28T18:07:57.013Z,47.15
2023-01-28T18:10:29.446Z,51.45
2023-01-28T18:13:02.324Z,52.38
2023-01-28T18:15:34.436Z,57.75
2023-01-28T18:18:08.026Z,52.45
2023-01-28T18:20:40.540Z,51.17
2023-01-28T18:23:12.515Z,56.63
2023-01-28T18:25:44.497Z,50.33
2023-01-28T18:28:16.511Z,51.65
2023-01-28T18:30:48.887Z,54.83
2023-01-28T18:33:22.255Z,51.50
2023-01-28T18:35:54.227Z,50.15
2023-01-28T18:38:26.180Z,53.60
2023-01-28T18:40:58.184Z,60.72
2023-01-28T18:43:32.691Z,59.95
2023-01-28T18:46:11.639Z,67.20
2023-01-28T18:48:44.303Z,62.17
2023-01-28T18:51:28.894Z,63.15
2023-01-28T18:54:05.239Z,58.63
2023-01-28T18:56:37.327Z,56.83
2023-01-28T18:59:12.438Z,63.90
2023-01-28T19:01:44.933Z,57.92
2023-01-28T19:04:18.805Z,59.03
2023-01-28T19:06:50.767Z,52.85
2023-01-28T19:09:23.098Z,53.17
2023-01-28T19:11:55.041Z,50.33
2023-01-28T19:14:26.965Z,59.90
2023-01-28T19:16:59.528Z,54.85
2023-01-28T19:19:31.636Z,57.28
2023-01-28T19:22:04.593Z,59.92
2023-01-28T19:24:36.571Z,53.17
2023-01-28T19:27:08.794Z,50.20
2023-01-28T19:29:40.764Z,57.13
2023-01-28T19:32:12.684Z,53.65
2023-01-28T19:34:44.666Z,53.85
2023-01-28T19:37:17.050Z,60.88
2023-01-28T19:39:49.329Z,60.00
2023-01-28T19:42:21.382Z,60.83
2023-01-28T19:44:53.617Z,58.00
2023-01-28T19:47:25.743Z,61.70
2023-01-28T19:49:58.169Z,58.97
2023-01-28T19:52:31.037Z,61.92
2023-01-28T19:55:03.293Z,62.85
2023-01-28T19:57:36.104Z,59.60
2023-01-28T20:00:09.385Z,58.95
2023-01-28T20:02:41.422Z,60.10
2023-01-28T20:05:13.608Z,59.30
2023-01-28T20:07:45.805Z,64.75
2023-01-28T20:10:18.682Z,62.80
2023-01-28T20:12:50.738Z,60.88
2023-01-28T20:15:22.751Z,63.60
2023-01-28T20:17:55.013Z,67.35
2023-01-28T20:20:26.991Z,55.90
2023-01-28T20:22:59.002Z,59.45
2023-01-28T20:25:32.927Z,47.38
2023-01-28T20:28:05.048Z,64.72
2023-01-28T20:30:37.736Z,67.77
2023-01-28T20:33:09.770Z,65.97
2023-01-28T20:35:42.291Z,68.97
2023-01-28T20:38:14.784Z,62.70
2023-01-28T20:40:47.484Z,73.55
2023-01-28T20:43:20.451Z,61.65
2023-01-28T20:45:52.455Z,84.35
2023-01-28T20:48:24.600Z,77.40
2023-01-28T20:50:56.635Z,95.40
2023-01-28T20:53:28.996Z,86.57
2023-01-28T20:56:01.647Z,72.43
